CheckWX is a tool to help pilots better visualize weather data.  It is not intended as a substitute for an official pre-flight weather briefing.

12:23:07 UTC

EFOU TAF
Oulu Airport
Oulu / Oulunsalo, Finland
TAF EFOU 221125Z 2212/2312 29010KT CAVOK BECMG 2214/2216 18010KT BECMG 2222/2224 8000 -SNRA BKN040 TEMPO 2300/2306 19015G25KT 4000 -SNRA BECMG 2306/2308 8000 -RA OVC008 TEMPO 2308/2309 5000 -SNRA TEMPO 2310/2312 9999 BKN012

Mar-22@
12:00 UTC

Mar-22 @ 12:00 UTC

Mar-22@
14:00 UTC

Mar-22 @ 14:00 UTC

TAF EFOU 221125Z 2212/2312 29010KT CAVOK
Wind
  • 290° at 10 KTS
Conditions
No significant weather
Cloud Levels
  • No significant clouds

Mar-22@
14:00 UTC

Mar-22 @ 14:00 UTC

Mar-22@
22:00 UTC

Mar-22 @ 22:00 UTC

BECMG 2214/2216 18010KT

Becoming

Becoming Conditions expected by Fri, Mar 22, 2019 @ 16:00 UTC

Wind
  • 180° at 10 KTS
Conditions
No significant weather
Cloud Levels
  • No significant clouds

Mar-22@
22:00 UTC

Mar-22 @ 22:00 UTC

Mar-23@
06:00 UTC

Mar-23 @ 06:00 UTC

BECMG 2222/2224 8000 -SNRA BKN040

Becoming

Becoming Conditions expected by Sat, Mar 23, 2019 @ 00:00 UTC

Wind
  • 180° at 10 KTS
Conditions
Light Snow, Light Rain
Cloud Levels
  • Broken at 4,000' AGL

Mar-23@
00:00 UTC

Mar-23 @ 00:00 UTC

Mar-23@
06:00 UTC

Mar-23 @ 06:00 UTC

TEMPO 2300/2306 19015G25KT 4000 -SNRA

Temporary

Temporary Changes expected for less than half the time period

Wind
  • 190° at 15 KTS
  • {Gusting to 25 KTS
Conditions
Light Snow, Light Rain

Mar-23@
06:00 UTC

Mar-23 @ 06:00 UTC

Mar-23@
12:00 UTC

Mar-23 @ 12:00 UTC

BECMG 2306/2308 8000 -RA OVC008

Becoming

Becoming Conditions expected by Sat, Mar 23, 2019 @ 08:00 UTC

Wind
  • 180° at 10 KTS
Conditions
Light Rain
Cloud Levels
  • Overcast at 800' AGL

Mar-23@
08:00 UTC

Mar-23 @ 08:00 UTC

Mar-23@
09:00 UTC

Mar-23 @ 09:00 UTC

TEMPO 2308/2309 5000 -SNRA

Temporary

Temporary Changes expected for less than half the time period

Conditions
Light Snow, Light Rain

Mar-23@
10:00 UTC

Mar-23 @ 10:00 UTC

Mar-23@
12:00 UTC

Mar-23 @ 12:00 UTC

TEMPO 2310/2312 9999 BKN012

Temporary

Temporary Changes expected for less than half the time period

Cloud Levels
  • Broken at 1,200' AGL